Terminal Aerodrome Forecast
Issued by NWS Cleveland, OH

Home | Current Version | Previous Version | Graphics & Text | Print | Product List | Glossary On
Versions: 1 2 3 4 5 6 7 8 9 10 11 12 13 14 15 16 17 18 19 20 21 22 23 24 25 26 27 28
000
FTUS41 KCLE 301700
TAFCLE
TAF
KCLE 301731Z 3018/0124 34010KT P6SM SCT019 OVC035
      TEMPO 3018/3022 SCT019 OVC030
     FM302200 34010KT P6SM OVC030
     FM010200 36007KT P6SM -SHRA BKN007 OVC019
     FM010600 36005KT P6SM BKN030
     FM011200 01006KT P6SM BKN060
     FM012100 33005KT P6SM SCT060=

USA.gov is the U.S. government's official web portal to all federal, state and local government web resources and services.